Time;durP1;ratioP1;P1;durP2;ratioP2;P2;SDS_P1;SDS_P2;PMS_P1;PMS_P2;Temp;Humidity;BMP_temperature;BMP_pressure;BME280_temperature;BME280_humidity;BME280_pressure;Samples;Min_cycle;Max_cycle;Signal;HPM_P1;HPM_P2
2021/05/22 00:00:43;;;;;;;10.82;5.35;;;;;;;12.91;57.42;99688.64;1581947;89;21658;-74
2021/05/22 00:03:09;;;;;;;6.50;5.62;;;;;;;12.89;57.91;99680.55;1619266;88;21131;-73
2021/05/22 00:05:36;;;;;;;16.10;6.00;;;;;;;12.78;58.77;99685.09;1610908;89;21079;-73
2021/05/22 00:08:04;;;;;;;12.10;7.08;;;;;;;12.68;59.38;99685.87;1624929;86;21054;-74
2021/05/22 00:10:31;;;;;;;8.28;5.70;;;;;;;12.61;59.77;99680.45;1642432;87;21054;-74
2021/05/22 00:12:58;;;;;;;11.18;6.75;;;;;;;12.49;60.34;99685.23;1623064;87;21027;-74
2021/05/22 00:15:25;;;;;;;13.03;6.80;;;;;;;12.36;60.88;99680.31;1616846;88;21618;-75
2021/05/22 00:17:51;;;;;;;12.53;7.10;;;;;;;12.24;61.46;99680.50;1584635;89;21020;-71
2021/05/22 00:20:17;;;;;;;14.00;6.65;;;;;;;12.13;61.91;99679.63;1628699;87;21074;-73
2021/05/22 00:22:44;;;;;;;15.60;8.00;;;;;;;12.04;62.32;99675.80;1601791;89;20992;-73
2021/05/22 00:25:12;;;;;;;10.70;7.15;;;;;;;11.99;62.70;99671.72;1605840;88;21621;-73
2021/05/22 00:27:38;;;;;;;20.50;7.25;;;;;;;11.94;62.92;99672.24;1633913;87;21594;-73
2021/05/22 00:30:06;;;;;;;13.28;7.67;;;;;;;11.90;63.04;99675.16;1606210;89;21479;-74
2021/05/22 00:32:32;;;;;;;8.70;6.12;;;;;;;11.89;63.03;99668.98;1602732;88;21041;-73
2021/05/22 00:34:58;;;;;;;12.98;8.05;;;;;;;11.83;63.53;99681.31;1632908;87;21090;-74
2021/05/22 00:37:27;;;;;;;10.85;6.95;;;;;;;11.74;63.81;99680.98;1629819;87;21030;-73
2021/05/22 00:39:54;;;;;;;12.03;6.53;;;;;;;11.71;63.47;99682.27;1619510;87;21106;-74
2021/05/22 00:42:21;;;;;;;15.75;8.33;;;;;;;11.74;63.02;99682.33;1633080;87;21030;-77
2021/05/22 00:45:19;;;;;;;12.45;7.10;;;;;;;11.76;62.18;99683.69;1605431;89;21059;-77
2021/05/22 00:47:48;;;;;;;8.88;7.58;;;;;;;11.80;61.84;99692.88;1623455;87;21576;-76
2021/05/22 00:50:24;;;;;;;17.90;8.70;;;;;;;11.85;61.67;99681.32;1602991;87;22587;-75
2021/05/22 00:52:51;;;;;;;14.00;8.33;;;;;;;11.86;62.52;99682.13;1622422;85;21693;-72
2021/05/22 00:55:18;;;;;;;15.88;9.20;;;;;;;11.86;62.42;99686.17;1656586;84;21130;-71
2021/05/22 00:57:44;;;;;;;11.50;7.70;;;;;;;11.85;62.35;99689.41;1622591;86;21621;-70
2021/05/22 01:00:14;;;;;;;14.85;7.22;;;;;;;11.86;62.24;99674.86;1655569;86;20968;-71
2021/05/22 01:02:42;;;;;;;24.37;13.60;;;;;;;11.87;62.67;99674.33;1641412;86;21060;-72
2021/05/22 01:05:10;;;;;;;30.25;10.65;;;;;;;11.87;62.97;99678.38;1649096;86;20996;-71
2021/05/22 01:07:37;;;;;;;15.85;9.25;;;;;;;11.85;63.26;99681.85;1649219;86;21108;-73
2021/05/22 01:10:06;;;;;;;20.70;7.95;;;;;;;11.82;62.82;99684.54;1639626;86;21588;-74
2021/05/22 01:12:36;;;;;;;24.20;10.53;;;;;;;11.80;62.43;99671.84;1643703;86;21669;-73
2021/05/22 01:15:08;;;;;;;22.82;10.65;;;;;;;11.80;62.47;99677.23;1635690;86;21071;-76
2021/05/22 01:17:37;;;;;;;22.62;9.48;;;;;;;11.81;62.39;99678.87;1640078;86;21072;-81
2021/05/22 01:20:26;;;;;;;16.65;7.90;;;;;;;11.80;62.69;99683.44;1637861;86;21973;-73
2021/05/22 01:22:54;;;;;;;15.03;8.58;;;;;;;11.81;62.67;99678.87;1652466;86;21064;-72
2021/05/22 01:25:37;;;;;;;15.32;8.48;;;;;;;11.80;62.32;99682.09;1640258;86;21536;-74
2021/05/22 01:28:04;;;;;;;19.15;8.90;;;;;;;11.79;62.38;99680.49;1657311;86;21048;-73
2021/05/22 01:30:32;;;;;;;13.88;5.78;;;;;;;11.79;62.59;99689.92;1638552;86;21564;-74
2021/05/22 01:33:00;;;;;;;13.58;7.05;;;;;;;11.80;61.84;99691.53;1626398;86;21037;-72
2021/05/22 01:35:26;;;;;;;16.62;7.70;;;;;;;11.85;61.54;99688.05;1647300;86;21153;-79
2021/05/22 01:37:53;;;;;;;15.48;8.75;;;;;;;11.87;61.72;99694.55;1634141;86;21084;-72
2021/05/22 01:40:21;;;;;;;19.15;8.93;;;;;;;11.86;62.59;99692.91;1655798;86;21640;-69
2021/05/22 01:42:47;;;;;;;18.00;7.30;;;;;;;11.84;62.78;99702.63;1635432;86;21003;-70
2021/05/22 01:45:22;;;;;;;9.33;6.30;;;;;;;11.84;62.14;99703.97;1644794;86;21192;-70
2021/05/22 01:47:48;;;;;;;10.18;5.62;;;;;;;11.87;61.70;99698.59;1649609;86;21008;-70
2021/05/22 01:50:17;;;;;;;14.40;6.62;;;;;;;11.92;61.66;99702.67;1637266;86;21445;-71
2021/05/22 01:52:47;;;;;;;11.50;7.67;;;;;;;11.91;62.43;99692.42;1659733;86;21577;-69
2021/05/22 01:55:14;;;;;;;14.95;7.00;;;;;;;11.89;62.81;99703.20;1643055;86;21102;-70
2021/05/22 01:57:41;;;;;;;9.80;6.00;;;;;;;11.85;63.04;99704.76;1629150;86;21104;-69
2021/05/22 02:00:15;;;;;;;7.28;5.90;;;;;;;11.84;62.44;99703.97;1621219;87;21171;-68
2021/05/22 02:02:49;;;;;;;10.03;5.33;;;;;;;11.87;62.17;99703.98;1647939;85;21085;-70
2021/05/22 02:05:15;;;;;;;8.15;5.20;;;;;;;11.91;61.97;99708.59;1659386;86;21080;-71
2021/05/22 02:07:42;;;;;;;7.17;6.00;;;;;;;11.94;61.76;99712.67;1641068;85;21109;-70
2021/05/22 02:10:10;;;;;;;7.08;5.70;;;;;;;11.98;61.68;99714.59;1629616;87;21605;-69
2021/05/22 02:12:37;;;;;;;8.55;6.50;;;;;;;12.01;61.86;99713.25;1624998;87;21089;-69
2021/05/22 02:15:09;;;;;;;14.80;8.98;;;;;;;11.97;62.37;99711.61;1603581;88;21120;-68
2021/05/22 02:17:37;;;;;;;10.80;6.80;;;;;;;11.93;62.52;99717.25;1608305;87;21638;-68
2021/05/22 02:20:06;;;;;;;8.10;6.35;;;;;;;11.94;62.56;99724.23;1623316;87;21153;-68
2021/05/22 02:22:33;;;;;;;8.68;6.45;;;;;;;11.96;62.39;99720.77;1617764;87;21941;-68
2021/05/22 02:25:00;;;;;;;11.45;6.42;;;;;;;11.99;62.42;99722.14;1631063;87;21017;-69
2021/05/22 02:27:26;;;;;;;12.60;6.78;;;;;;;11.99;62.46;99716.75;1601147;87;21030;-72
2021/05/22 02:29:53;;;;;;;11.00;5.87;;;;;;;11.99;62.40;99722.14;1627147;87;21101;-69
2021/05/22 02:32:20;;;;;;;10.45;7.60;;;;;;;11.98;62.44;99710.55;1610802;87;21044;-69
2021/05/22 02:34:50;;;;;;;17.60;8.23;;;;;;;11.99;62.45;99711.36;1627604;86;21054;-69
2021/05/22 02:37:20;;;;;;;12.53;7.37;;;;;;;12.01;62.51;99711.90;1637736;87;22319;-68
2021/05/22 02:39:50;;;;;;;15.10;7.58;;;;;;;12.02;62.79;99708.14;1638009;87;20977;-69
2021/05/22 02:42:17;;;;;;;15.63;9.55;;;;;;;12.00;62.96;99716.47;1628184;87;21577;-69
2021/05/22 02:44:46;;;;;;;10.58;7.42;;;;;;;12.00;63.00;99719.17;1636248;86;21021;-69
2021/05/22 02:47:12;;;;;;;14.98;7.80;;;;;;;12.02;63.11;99720.27;1623272;86;21813;-69
2021/05/22 02:49:42;;;;;;;10.65;7.05;;;;;;;12.02;63.09;99726.48;1617754;87;21805;-68
2021/05/22 02:52:11;;;;;;;11.75;7.30;;;;;;;12.01;63.03;99724.03;1606939;87;21056;-69
2021/05/22 02:54:39;;;;;;;13.35;8.03;;;;;;;12.02;63.19;99725.66;1617712;87;21883;-68
2021/05/22 02:57:08;;;;;;;22.13;9.70;;;;;;;12.02;63.42;99735.09;1628427;87;21104;-69
2021/05/22 02:59:35;;;;;;;12.53;7.15;;;;;;;12.02;63.61;99739.14;1607681;87;21162;-68
2021/05/22 03:02:02;;;;;;;8.80;6.30;;;;;;;12.01;63.99;99734.81;1616612;87;21174;-67
2021/05/22 03:04:33;;;;;;;7.03;5.45;;;;;;;11.98;64.09;99744.24;1638098;87;20976;-68
2021/05/22 03:07:00;;;;;;;9.75;5.62;;;;;;;11.98;63.83;99742.89;1624279;87;21035;-68
2021/05/22 03:09:28;;;;;;;12.00;5.33;;;;;;;12.00;63.60;99746.66;1569190;89;21165;-69
2021/05/22 03:11:55;;;;;;;6.92;5.08;;;;;;;12.02;63.45;99750.73;1571067;90;21175;-71
2021/05/22 03:14:22;;;;;;;10.50;5.58;;;;;;;12.05;63.26;99756.95;1586074;90;21149;-72
2021/05/22 03:16:48;;;;;;;7.33;4.55;;;;;;;12.05;63.20;99757.48;1610952;87;21045;-68
2021/05/22 03:19:15;;;;;;;8.45;4.37;;;;;;;12.04;63.44;99761.24;1593070;90;21130;-69
2021/05/22 03:21:41;;;;;;;7.92;4.92;;;;;;;12.06;63.36;99763.16;1572194;90;21587;-69
2021/05/22 03:24:09;;;;;;;6.83;5.30;;;;;;;12.08;63.26;99769.12;1589083;89;21126;-70
2021/05/22 03:26:36;;;;;;;5.60;5.10;;;;;;;12.10;63.38;99768.30;1572074;90;21118;-69
2021/05/22 03:29:03;;;;;;;10.43;4.87;;;;;;;12.13;63.24;99777.25;1548162;90;21059;-68
2021/05/22 03:31:30;;;;;;;8.68;4.85;;;;;;;12.14;63.37;99772.11;1571510;90;21420;-69
2021/05/22 03:33:56;;;;;;;4.80;4.08;;;;;;;12.14;63.60;99769.41;1545495;90;21063;-68
2021/05/22 03:36:23;;;;;;;5.47;4.92;;;;;;;12.17;63.68;99783.75;1589314;89;21322;-68
2021/05/22 03:38:49;;;;;;;7.03;5.37;;;;;;;12.20;63.74;99783.22;1589509;89;21089;-69
2021/05/22 03:41:16;;;;;;;5.78;4.35;;;;;;;12.21;64.06;99770.84;1600232;89;21119;-68
2021/05/22 03:43:43;;;;;;;6.03;5.42;;;;;;;12.23;64.30;99781.34;1610450;88;21058;-70
2021/05/22 03:46:10;;;;;;;5.58;4.58;;;;;;;12.24;64.33;99779.75;1609800;88;21053;-70
2021/05/22 03:48:36;;;;;;;7.33;5.10;;;;;;;12.26;64.51;99782.73;1589700;89;21171;-69
2021/05/22 03:51:05;;;;;;;6.28;4.45;;;;;;;12.28;64.69;99780.03;1610480;89;21129;-70
2021/05/22 03:53:32;;;;;;;6.85;5.58;;;;;;;12.30;64.97;99782.48;1602625;89;21114;-68
2021/05/22 03:55:59;;;;;;;8.90;6.53;;;;;;;12.30;65.24;99785.18;1610256;89;21601;-69
2021/05/22 03:58:26;;;;;;;8.80;7.05;;;;;;;12.31;65.33;99786.28;1575166;90;21584;-72
2021/05/22 04:00:52;;;;;;;6.30;5.12;;;;;;;12.36;65.21;99784.16;1578275;90;22544;-69
2021/05/22 04:03:19;;;;;;;8.58;5.30;;;;;;;12.40;65.25;99797.39;1609679;87;21165;-68
2021/05/22 04:05:45;;;;;;;10.65;6.10;;;;;;;12.42;65.24;99794.70;1589859;89;21058;-68
2021/05/22 04:08:12;;;;;;;9.10;5.85;;;;;;;12.48;65.26;99796.91;1611185;87;21113;-69
2021/05/22 04:10:38;;;;;;;8.23;5.47;;;;;;;12.53;65.29;99800.45;1629515;87;21554;-68
2021/05/22 04:13:05;;;;;;;13.20;6.85;;;;;;;12.61;65.08;99797.25;1617107;87;21174;-69
2021/05/22 04:15:32;;;;;;;7.58;4.67;;;;;;;12.70;64.90;99800.84;1623061;87;21625;-68
2021/05/22 04:17:58;;;;;;;7.05;4.95;;;;;;;12.78;64.65;99798.98;1630940;87;21005;-69
2021/05/22 04:20:26;;;;;;;7.35;5.25;;;;;;;12.87;64.49;99801.46;1593968;87;21092;-67
2021/05/22 04:22:53;;;;;;;12.20;5.15;;;;;;;12.95;64.47;99811.22;1625085;87;21085;-68
2021/05/22 04:25:20;;;;;;;5.28;3.95;;;;;;;13.02;64.36;99809.11;1625792;87;21078;-68
2021/05/22 04:27:46;;;;;;;7.75;6.45;;;;;;;13.10;64.25;99811.30;1615000;88;21054;-72
2021/05/22 04:30:16;;;;;;;12.20;8.88;;;;;;;13.18;64.26;99808.67;1633550;87;21100;-73
2021/05/22 04:32:43;;;;;;;10.10;6.78;;;;;;;13.26;64.01;99816.27;1631431;87;21665;-69
2021/05/22 04:35:10;;;;;;;9.35;6.33;;;;;;;13.34;63.89;99816.28;1616150;87;21087;-70
2021/05/22 04:37:37;;;;;;;8.10;5.87;;;;;;;13.42;63.71;99816.61;1624591;87;21872;-72
2021/05/22 04:40:06;;;;;;;11.40;7.30;;;;;;;13.50;63.65;99811.21;1626871;86;21661;-69
2021/05/22 04:42:32;;;;;;;10.80;6.47;;;;;;;13.59;63.75;99814.20;1625257;87;21111;-69
2021/05/22 04:44:59;;;;;;;10.30;5.17;;;;;;;13.68;63.78;99819.36;1636335;87;21080;-68
2021/05/22 04:47:26;;;;;;;7.67;4.85;;;;;;;13.76;63.96;99817.50;1616681;87;20994;-69
2021/05/22 04:49:52;;;;;;;8.78;5.33;;;;;;;13.86;63.95;99812.91;1632418;87;21041;-70
2021/05/22 04:52:22;;;;;;;5.35;4.53;;;;;;;13.94;64.48;99812.93;1628677;87;21119;-69
2021/05/22 04:54:50;;;;;;;6.25;3.77;;;;;;;14.02;64.16;99821.85;1622587;87;22407;-67
2021/05/22 04:57:17;;;;;;;6.62;4.30;;;;;;;14.11;64.18;99814.02;1630500;87;21100;-69
2021/05/22 04:59:46;;;;;;;9.90;5.15;;;;;;;14.20;63.66;99811.84;1609260;87;21600;-69
2021/05/22 05:02:12;;;;;;;4.53;3.72;;;;;;;14.30;63.71;99811.03;1620917;87;21099;-68
2021/05/22 05:04:38;;;;;;;4.78;4.12;;;;;;;14.40;63.76;99808.36;1636345;87;22282;-69
2021/05/22 05:07:05;;;;;;;6.05;4.25;;;;;;;14.50;63.82;99814.30;1631842;87;20998;-70
2021/05/22 05:09:35;;;;;;;8.00;3.58;;;;;;;14.59;64.00;99812.67;1640128;86;21104;-69
2021/05/22 05:12:05;;;;;;;4.50;3.60;;;;;;;14.68;64.02;99814.55;1612823;86;20965;-70
2021/05/22 05:14:33;;;;;;;6.75;4.50;;;;;;;14.78;63.58;99820.48;1631233;86;21183;-67
2021/05/22 05:17:00;;;;;;;6.33;4.42;;;;;;;14.87;63.46;99825.61;1647755;86;21098;-68
2021/05/22 05:19:31;;;;;;;5.03;4.08;;;;;;;14.98;63.27;99827.75;1634620;86;21647;-68
2021/05/22 05:21:59;;;;;;;4.10;3.35;;;;;;;15.08;62.75;99825.83;1639554;86;21048;-68
2021/05/22 05:24:26;;;;;;;4.37;3.10;;;;;;;15.21;61.80;99822.52;1613838;86;21085;-69
2021/05/22 05:26:53;;;;;;;4.35;2.58;;;;;;;15.35;61.07;99823.31;1638767;86;21150;-68
2021/05/22 05:29:21;;;;;;;6.58;3.20;;;;;;;15.45;60.10;99824.05;1636902;86;21134;-71
2021/05/22 05:31:48;;;;;;;4.10;2.62;;;;;;;15.59;59.30;99821.02;1643086;86;21147;-70
2021/05/22 05:34:15;;;;;;;7.28;4.10;;;;;;;15.70;59.47;99823.14;1648691;86;21744;-69
2021/05/22 05:36:41;;;;;;;5.85;2.80;;;;;;;15.80;59.47;99826.34;1629781;86;21080;-70
2021/05/22 05:39:10;;;;;;;3.67;3.02;;;;;;;15.89;59.54;99823.29;1616894;86;21093;-69
2021/05/22 05:41:37;;;;;;;3.83;2.60;;;;;;;15.98;59.11;99822.41;1635817;86;21047;-69
2021/05/22 05:44:07;;;;;;;4.05;3.15;;;;;;;16.09;58.58;99817.73;1650627;86;21644;-68
2021/05/22 05:46:36;;;;;;;6.58;3.20;;;;;;;16.21;58.10;99823.59;1650898;86;21584;-70
2021/05/22 05:49:03;;;;;;;3.40;2.37;;;;;;;16.31;57.58;99821.34;1631166;86;21098;-69
2021/05/22 05:51:30;;;;;;;2.92;2.55;;;;;;;16.43;56.77;99825.87;1637684;86;21246;-68
2021/05/22 05:53:57;;;;;;;2.65;2.42;;;;;;;16.53;56.17;99832.03;1645455;86;21068;-70
2021/05/22 05:56:24;;;;;;;2.67;2.27;;;;;;;16.66;55.34;99834.65;1626543;86;21067;-68
2021/05/22 05:58:51;;;;;;;7.95;2.95;;;;;;;16.76;54.94;99833.73;1599048;88;21110;-69
2021/05/22 06:01:17;;;;;;;3.80;2.47;;;;;;;16.87;54.92;99837.44;1605175;86;21104;-67
2021/05/22 06:03:44;;;;;;;4.17;3.05;;;;;;;16.98;54.21;99844.91;1614713;86;21792;-69
2021/05/22 06:06:12;;;;;;;3.00;2.52;;;;;;;17.08;53.32;99855.67;1589446;89;21059;-72
2021/05/22 06:08:38;;;;;;;3.00;2.30;;;;;;;17.20;52.79;99850.66;1638899;86;21132;-68
2021/05/22 06:11:07;;;;;;;3.10;2.25;;;;;;;17.31;51.59;99855.44;1636379;86;21579;-68
2021/05/22 06:13:35;;;;;;;4.25;2.75;;;;;;;17.41;51.81;99856.65;1629262;87;21615;-67
2021/05/22 06:18:37;;;;;;;3.02;2.60;;;;;;;17.59;49.30;99870.08;1638603;87;21012;-68
2021/05/22 06:21:05;;;;;;;2.67;1.98;;;;;;;17.67;48.04;99860.70;1607431;87;21117;-68
2021/05/22 06:23:32;;;;;;;1.85;1.67;;;;;;;17.77;47.75;99855.14;1642661;87;21031;-69
2021/05/22 06:25:59;;;;;;;1.80;1.70;;;;;;;17.85;47.57;99868.07;1633931;87;20991;-72
2021/05/22 06:28:26;;;;;;;2.75;1.82;;;;;;;17.92;46.50;99868.27;1647116;87;21137;-69
2021/05/22 06:30:58;;;;;;;5.08;2.47;;;;;;;17.99;46.38;99875.50;1570637;90;21404;-68
2021/05/22 06:33:25;;;;;;;2.10;1.80;;;;;;;18.05;46.39;99869.70;1547314;91;21662;-69
2021/05/22 06:35:52;;;;;;;4.97;1.55;;;;;;;18.10;46.18;99868.81;1594427;90;21641;-68
2021/05/22 06:38:18;;;;;;;1.90;1.72;;;;;;;18.14;45.74;99870.65;1620327;87;21129;-69
2021/05/22 06:40:48;;;;;;;16.27;1.90;;;;;;;18.18;45.50;99867.59;1618731;88;21907;-67
2021/05/22 06:43:14;;;;;;;2.67;1.47;;;;;;;18.23;46.06;99878.41;1641367;87;21101;-69
2021/05/22 06:45:55;;;;;;;1.55;1.32;;;;;;;18.29;45.96;99880.50;1648236;87;21070;-68
2021/05/22 06:48:13;;;;;;;8.43;1.90;;;;;;;18.37;45.83;99888.57;1599583;88;21021;-68
2021/05/22 06:50:40;;;;;;;7.80;2.37;;;;;;;18.43;45.64;99898.25;1594533;90;21628;-68
2021/05/22 06:53:07;;;;;;;3.85;1.72;;;;;;;18.44;44.63;99889.80;1586041;90;21621;-68
2021/05/22 06:55:34;;;;;;;2.15;1.60;;;;;;;18.45;44.70;99875.63;1577291;88;21067;-68
2021/05/22 06:58:00;;;;;;;8.18;2.10;;;;;;;18.48;44.67;99874.47;1619446;88;21050;-67
2021/05/22 07:00:27;;;;;;;2.20;1.60;;;;;;;18.53;45.08;99876.30;1618867;88;21136;-69
2021/05/22 07:02:54;;;;;;;2.85;1.87;;;;;;;18.58;44.91;99877.06;1606063;88;21621;-69
2021/05/22 07:05:21;;;;;;;5.67;2.17;;;;;;;18.63;43.86;99881.07;1594644;90;21110;-69
2021/05/22 07:07:47;;;;;;;1.70;1.60;;;;;;;18.69;43.94;99888.06;1633747;87;21074;-68
2021/05/22 07:10:15;;;;;;;2.40;1.90;;;;;;;18.74;43.99;99884.44;1643061;86;21055;-68
2021/05/22 07:12:42;;;;;;;7.97;2.12;;;;;;;18.75;43.78;99877.08;1639314;86;21103;-69
2021/05/22 07:15:10;;;;;;;2.40;2.17;;;;;;;18.75;44.46;99873.80;1611212;89;21095;-70
2021/05/22 07:17:37;;;;;;;6.42;2.40;;;;;;;18.82;44.79;99876.11;1659406;86;21245;-73
2021/05/22 07:20:07;;;;;;;5.62;2.45;;;;;;;18.88;44.13;99873.02;1635197;86;21043;-70
2021/05/22 07:22:34;;;;;;;1.67;1.57;;;;;;;18.93;43.63;99865.30;1641920;86;21678;-73
2021/05/22 07:25:01;;;;;;;6.58;3.58;;;;;;;18.97;43.71;99863.58;1615216;88;21099;-69
2021/05/22 07:27:28;;;;;;;2.10;1.90;;;;;;;18.97;43.55;99861.67;1640401;86;21072;-70
2021/05/22 07:29:55;;;;;;;5.22;3.37;;;;;;;18.99;42.85;99863.52;1642556;86;21255;-70
2021/05/22 07:32:21;;;;;;;8.88;2.25;;;;;;;19.00;42.74;99863.78;1644776;86;21043;-68
2021/05/22 07:34:48;;;;;;;1.82;1.60;;;;;;;19.01;42.86;99858.59;1631380;86;21028;-70
2021/05/22 07:37:15;;;;;;;1.75;1.42;;;;;;;19.06;42.71;99868.59;1651125;86;21087;-69
2021/05/22 07:39:41;;;;;;;7.03;1.92;;;;;;;19.11;42.24;99859.77;1652062;86;21042;-69
2021/05/22 07:42:08;;;;;;;2.72;1.62;;;;;;;19.14;42.54;99867.33;1641803;86;21584;-71
2021/05/22 07:44:36;;;;;;;2.37;1.55;;;;;;;19.16;42.55;99854.77;1652541;86;21000;-69
2021/05/22 07:47:05;;;;;;;3.33;1.62;;;;;;;19.19;42.57;99852.78;1631597;86;21153;-70
2021/05/22 07:49:37;;;;;;;4.80;1.82;;;;;;;19.25;42.70;99851.58;1652802;86;21064;-70
2021/05/22 07:52:08;;;;;;;2.87;1.50;;;;;;;19.34;42.18;99865.31;1651566;86;20985;-68
2021/05/22 07:54:35;;;;;;;2.02;1.60;;;;;;;19.38;41.82;99865.77;1650002;86;21600;-70
2021/05/22 07:57:05;;;;;;;4.22;2.60;;;;;;;19.42;41.81;99844.98;1631456;86;21571;-69
2021/05/22 07:59:33;;;;;;;3.92;1.40;;;;;;;19.48;42.13;99842.41;1631844;86;21128;-67
2021/05/22 08:02:00;;;;;;;3.12;1.52;;;;;;;19.52;42.33;99845.33;1636528;86;21552;-66
2021/05/22 08:04:26;;;;;;;1.87;1.67;;;;;;;19.57;42.74;99837.84;1652429;86;21426;-68
2021/05/22 08:06:53;;;;;;;3.52;1.67;;;;;;;19.61;41.29;99838.06;1652884;86;21142;-68
2021/05/22 08:09:20;;;;;;;2.10;1.65;;;;;;;19.60;41.86;99844.62;1633016;86;20976;-68
2021/05/22 08:11:47;;;;;;;2.35;1.17;;;;;;;19.64;41.46;99848.91;1640898;86;21581;-68
2021/05/22 08:14:15;;;;;;;1.40;1.30;;;;;;;19.65;41.67;99842.34;1632205;86;21142;-67
2021/05/22 08:16:42;;;;;;;3.83;1.30;;;;;;;19.69;41.75;99833.23;1628333;87;21063;-69
2021/05/22 08:19:11;;;;;;;5.00;1.30;;;;;;;19.76;41.40;99826.00;1617451;88;20980;-69
2021/05/22 08:21:40;;;;;;;5.00;3.30;;;;;;;19.86;41.51;99833.39;1600556;89;21063;-68
2021/05/22 08:24:09;;;;;;;1.30;1.20;;;;;;;19.96;40.81;99826.33;1655498;86;21045;-68
2021/05/22 08:26:37;;;;;;;1.82;1.50;;;;;;;20.07;40.58;99835.09;1618502;88;21037;-68
2021/05/22 08:29:05;;;;;;;1.82;1.42;;;;;;;20.12;40.42;99832.80;1645768;86;20972;-70
2021/05/22 08:31:34;;;;;;;1.90;1.37;;;;;;;20.16;39.04;99829.70;1653942;86;21120;-68
2021/05/22 08:34:00;;;;;;;2.55;0.90;;;;;;;20.22;38.72;99821.64;1646262;87;21679;-70
2021/05/22 08:36:28;;;;;;;4.42;1.20;;;;;;;20.25;38.01;99812.81;1645740;86;21021;-70
2021/05/22 08:38:55;;;;;;;7.65;1.67;;;;;;;20.34;37.44;99826.00;1663331;86;21131;-68
2021/05/22 08:41:21;;;;;;;5.45;2.33;;;;;;;20.40;37.82;99822.03;1638764;87;21022;-67
2021/05/22 08:43:48;;;;;;;2.17;1.60;;;;;;;20.49;38.05;99823.45;1673571;85;21099;-68
2021/05/22 08:46:16;;;;;;;4.90;1.20;;;;;;;20.54;37.92;99831.52;1654560;85;21055;-70
2021/05/22 08:48:45;;;;;;;1.80;1.10;;;;;;;20.56;37.81;99823.27;1677671;85;21654;-70
2021/05/22 08:51:12;;;;;;;7.58;1.45;;;;;;;20.58;38.02;99812.01;1640280;86;21053;-70
2021/05/22 08:53:38;;;;;;;1.50;1.30;;;;;;;20.61;37.95;99814.95;1659582;86;21013;-68
2021/05/22 08:56:06;;;;;;;3.52;1.85;;;;;;;20.66;36.92;99810.71;1639600;86;21185;-70
2021/05/22 08:58:33;;;;;;;1.10;0.82;;;;;;;20.70;37.67;99808.16;1660186;86;21084;-68
2021/05/22 09:01:01;;;;;;;5.87;1.50;;;;;;;20.73;37.14;99817.89;1659871;86;21124;-68
2021/05/22 09:03:30;;;;;;;6.37;1.40;;;;;;;20.71;37.43;99800.20;1634507;86;21016;-72
2021/05/22 09:05:56;;;;;;;3.75;1.47;;;;;;;20.72;36.78;99804.55;1659462;86;21061;-68
2021/05/22 09:08:22;;;;;;;1.40;1.30;;;;;;;20.76;36.40;99800.88;1657313;86;21124;-70
2021/05/22 09:10:52;;;;;;;1.47;1.30;;;;;;;20.84;35.61;99790.53;1654328;86;20973;-68
2021/05/22 09:13:25;;;;;;;2.10;1.22;;;;;;;20.95;36.11;99810.77;1611257;89;21099;-69
2021/05/22 09:16:05;;;;;;;1.27;1.17;;;;;;;21.01;35.12;99801.28;1660296;86;21079;-69
2021/05/22 09:18:36;;;;;;;1.45;1.00;;;;;;;21.08;35.68;99802.45;1608954;89;21003;-69
2021/05/22 09:21:06;;;;;;;2.12;1.32;;;;;;;21.08;35.68;99802.45;1659288;86;21140;-70
2021/05/22 09:23:36;;;;;;;1.70;1.30;;;;;;;21.13;35.65;99787.30;1640894;86;21075;-69
2021/05/22 09:26:06;;;;;;;2.42;1.45;;;;;;;21.17;35.72;99784.16;1611236;89;21035;-68
2021/05/22 09:28:36;;;;;;;4.67;1.80;;;;;;;21.23;35.74;99801.24;1638952;86;21080;-68
2021/05/22 09:31:04;;;;;;;1.85;1.20;;;;;;;21.29;35.40;99791.77;1660367;86;21044;-69
2021/05/22 09:33:33;;;;;;;3.33;1.20;;;;;;;21.35;35.18;99791.03;1652859;86;21021;-69
2021/05/22 09:36:07;;;;;;;3.83;1.37;;;;;;;21.42;35.03;99778.52;1652224;86;20969;-67
2021/05/22 09:38:46;;;;;;;3.12;1.45;;;;;;;21.49;34.69;99796.63;1637730;86;21050;-69
2021/05/22 09:41:21;;;;;;;7.75;1.47;;;;;;;21.46;34.26;99780.05;1626251;88;21077;-68
2021/05/22 09:44:15;;;;;;;1.17;1.07;;;;;;;21.43;34.92;99779.33;1626246;88;21081;-69
2021/05/22 09:46:49;;;;;;;;;;;;;;;21.45;34.81;99775.69;1604021;88;21043;-67
2021/05/22 09:49:32;;;;;;;6.05;1.10;;;;;;;21.48;35.09;99764.13;1645113;86;20243;-67
2021/05/22 09:52:11;;;;;;;3.67;1.77;;;;;;;21.48;35.09;99764.13;1652782;86;27043;-69
2021/05/22 09:54:54;;;;;;;1.60;1.10;;;;;;;21.58;35.29;99775.54;1652970;86;20984;-67
2021/05/22 09:57:35;;;;;;;7.33;1.50;;;;;;;21.67;33.83;99757.22;1652811;86;21652;-68
2021/05/22 10:00:21;;;;;;;1.90;1.33;;;;;;;21.66;34.11;99770.66;1653165;86;21112;-69
2021/05/22 10:03:01;;;;;;;3.08;1.20;;;;;;;21.64;33.78;99766.05;1652621;86;20996;-70
2021/05/22 10:05:33;;;;;;;3.33;1.57;;;;;;;21.53;33.78;99758.49;1651846;86;21076;-68
2021/05/22 10:08:03;;;;;;;2.55;1.32;;;;;;;21.51;34.16;99755.25;1646825;86;20962;-69
2021/05/22 10:10:42;;;;;;;5.62;1.22;;;;;;;21.49;33.62;99760.23;1629038;87;21653;-68
2021/05/22 10:13:10;;;;;;;2.58;1.05;;;;;;;21.51;33.31;99749.78;1633239;87;21540;-69
2021/05/22 10:15:38;;;;;;;9.58;1.70;;;;;;;21.56;33.66;99765.49;1614369;87;21648;-69
2021/05/22 10:18:08;;;;;;;2.17;1.20;;;;;;;21.59;33.33;99761.30;1635381;86;21655;-68
2021/05/22 10:20:36;;;;;;;3.17;1.30;;;;;;;21.67;33.32;99750.94;1660287;86;21607;-69
2021/05/22 10:23:05;;;;;;;2.95;1.22;;;;;;;21.72;33.63;99739.27;1660159;86;21100;-67
2021/05/22 10:25:32;;;;;;;2.58;1.00;;;;;;;21.79;33.35;99750.27;1660001;86;21229;-67
2021/05/22 10:27:59;;;;;;;1.07;0.90;;;;;;;21.85;33.40;99732.56;1655353;86;21017;-69
2021/05/22 10:30:27;;;;;;;3.47;2.72;;;;;;;21.98;33.76;99732.97;1614552;87;21120;-67
2021/05/22 10:33:07;;;;;;;5.40;1.60;;;;;;;22.10;33.42;99726.28;1629533;86;20995;-68
2021/05/22 10:35:53;;;;;;;5.00;2.45;;;;;;;22.13;33.07;99737.95;1663379;86;21032;-69
2021/05/22 10:38:37;;;;;;;1.60;1.00;;;;;;;22.09;33.10;99724.67;1640683;86;21096;-67
2021/05/22 10:41:11;;;;;;;2.67;1.30;;;;;;;22.09;33.50;99717.82;1660043;86;21041;-67
2021/05/22 10:43:56;;;;;;;3.33;1.27;;;;;;;22.22;33.31;99711.33;1640967;86;21059;-69
2021/05/22 10:46:20;;;;;;;7.25;1.20;;;;;;;22.34;33.06;99706.00;1658631;86;21040;-67
2021/05/22 10:48:59;;;;;;;2.10;1.00;;;;;;;22.45;33.08;99709.97;1635969;87;21080;-72
2021/05/22 10:51:36;;;;;;;3.40;1.20;;;;;;;22.54;32.21;99709.96;1632637;86;21227;-71
2021/05/22 10:54:05;;;;;;;5.17;1.07;;;;;;;22.48;32.31;99699.73;1646906;86;21106;-70
2021/05/22 10:56:32;;;;;;;4.58;2.15;;;;;;;22.55;31.75;99701.39;1597053;88;21606;-70
2021/05/22 10:59:09;;;;;;;3.77;2.20;;;;;;;22.65;32.13;99695.30;1662014;86;21159;-72
2021/05/22 11:01:35;;;;;;;2.45;1.65;;;;;;;22.77;32.30;99688.59;1631913;86;21059;-70
2021/05/22 11:04:23;;;;;;;4.40;1.15;;;;;;;22.74;31.82;99691.97;1617901;87;21080;-70
2021/05/22 11:07:00;;;;;;;2.15;1.60;;;;;;;22.67;31.81;99686.19;1647929;86;21029;-71
2021/05/22 11:09:36;;;;;;;4.37;1.62;;;;;;;22.69;32.12;99679.79;1674906;85;21003;-71
2021/05/22 11:12:09;;;;;;;1.85;1.02;;;;;;;22.82;32.47;99676.06;1637386;85;21062;-70
2021/05/22 11:14:55;;;;;;;3.02;1.67;;;;;;;22.91;32.10;99677.62;1632852;87;21091;-71
2021/05/22 11:17:32;;;;;;;3.25;0.98;;;;;;;23.03;32.18;99680.44;1634598;87;21711;-69
2021/05/22 11:20:07;;;;;;;1.02;0.90;;;;;;;23.13;31.19;99690.22;1634495;87;21047;-69
2021/05/22 11:22:46;;;;;;;3.33;1.52;;;;;;;23.15;31.03;99672.06;1607918;87;21582;-70
2021/05/22 11:25:17;;;;;;;7.67;1.47;;;;;;;23.02;31.09;99680.20;1635867;87;21030;-68
2021/05/22 11:27:58;;;;;;;1.95;1.50;;;;;;;22.96;31.17;99672.52;1613460;87;21098;-72
2021/05/22 11:30:33;;;;;;;1.20;0.95;;;;;;;22.96;31.28;99666.45;1620008;87;21711;-71
2021/05/22 11:33:06;;;;;;;5.55;1.98;;;;;;;22.89;31.32;99671.66;1591035;87;21000;-70
2021/05/22 11:35:44;;;;;;;;;;;;;;;22.88;31.71;99657.70;1615892;87;21079;-71
2021/05/22 11:38:17;;;;;;;3.02;1.55;;;;;;;22.90;31.02;99653.25;1635616;87;20218;-70
2021/05/22 11:40:48;;;;;;;10.72;1.80;;;;;;;22.92;31.82;99658.66;1613507;87;21082;-71
2021/05/22 11:43:21;;;;;;;3.87;1.72;;;;;;;23.06;31.48;99648.00;1634425;87;21210;-71